Používaním stránok prevádzkovaných PROFIPILOT, s.r.o. súhlasíte s používaním cookies, ktoré nám pomáhajú zabezpečiť lepšie služby.OK

Briefing

MAPA | METAR | TAF | METEO SITUÁCIA
MAPA | METAR | TAF | METEO SITUÁCIA

Predpoveď na dnes

Oblačno až zamračené a ojedinele slabé zrážky. Miestami aj zmenšená oblačnosť. Neskôr na severe a východe miestami prehánky, prevažne snehové. Najvyššia denná teplota -2 až 3, pri zmenšenej oblačnosti okolo 5 st. Teplota na horách vo výške 1500 m okolo +3 st. a postupne ochladzovanie. Slabý, na západe a miestami aj na severe severozápadný vietor 3 až 7 m/s (10 až 25 km/h). Vo vysokých polohách búrlivý vietor až silná víchrica! Predpokladané množstvo zrážok: do 0.5 mm, na severe a východe ojedinele do 2 mm / do 2 cm snehu

SHMÚ, OMPaV, SD 22.1.2020 11:42 SEČ

MAPA | METAR | TAF | METEO SITUÁCIA

TAF - Letisková predpoveď

22.01.2020 - 17:00 UTC

TAF LZIB 221700Z 2218/2318 33008KT CAVOK
     TEMPO 2303/2307 06004KT 3500 BCFG SCT002
     BECMG 2307/2309 24005KT
     BECMG 2313/2315 14006KT
     TEMPO 2316/2318 5000 BR NSC=
 TAF LZKZ 221700Z 2218/2318 VRB02KT 9999 OVC010
     BECMG 2219/2221 01005KT SCT009 SCT030
     TEMPO 2303/2308 VRB02KT 5000 BR SCT003
     BECMG 2308/2310 22005KT 8000 NSC
     BECMG 2315/2317 18003KT 3000 BR BKN002=
 TAF LZTT 221700Z 2218/2318 14003KT 8000 FEW033
     BECMG 2300/2302 21003KT 4000 BR SCT003 SCT030
     PROB40 TEMPO 2300/2304 -SN BKN017
     TEMPO 2304/2307 1200 BCFG BKN002
     BECMG 2307/2309 24005KT CAVOK=
 

22.01.2020 - 17:00 UTC

TAF LZSL 221700Z 2218/2303 35006KT 9999 SCT032=
 TAF LZPP 221700Z 2218/2303 33008KT 9999 BKN026=
 TAF LZZI 221700Z 2218/2303 02004KT 9999 BKN025
     TEMPO 2218/2303 2000 -SN BKN014 OVC021=
 

22.01.2020 - 14:00 UTC

TAF AMD LZZI 221635Z 2216/2300 VRB02KT 9999 BKN027
     TEMPO 2216/2300 2000 -SN BKN014 OVC021=
 

22.01.2020 - 14:00 UTC

TAF COR LZPP 221439Z 2215/2300 34007KT 9999 SCT015 BKN033=
 

22.01.2020 - 14:00 UTC

TAF LZSL 221400Z 2215/2300 33009KT CAVOK
     BECMG 2217/2219 9999 SCT035=
 TAF LZPP 221400Z 2215/2300 34007KT CAVOK
     BECMG 2216/2218 9999 BKN033=
 TAF LZZI 221400Z 2215/2300 VRB02KT 9999 BKN027
     PROB30 TEMPO 2215/2217 OVC013=
 

22.01.2020 - 11:00 UTC

TAF LZSL 221100Z 2212/2221 26005KT 9999 SCT009 OVC013
     BECMG 2212/2214 CAVOK
     BECMG 2217/2219 33009KT 9999 SCT035=
 TAF LZPP 221100Z 2212/2221 32007KT CAVOK
     TEMPO 2212/2214 9999 BKN010
     BECMG 2216/2218 9999 BKN033=
 TAF LZZI 221100Z 2212/2221 20006KT 9999 OVC011
     BECMG 2212/2214 BKN027=
 

22.01.2020 - 11:00 UTC

TAF LZIB 221100Z 2212/2312 28009KT 7000 BKN008
     BECMG 2212/2214 32012KT 9999 SCT010 SCT025
     TEMPO 2304/2306 06004KT 3500 BCFG SCT002
     BECMG 2307/2309 24006KT CAVOK=
 TAF LZKZ 221100Z 2212/2312 21010KT 8000 -SG OVC008
     TEMPO 2215/2217 -SN SCT008 BKN012
     BECMG 2218/2220 01005KT 9999 SCT009 SCT030=
 TAF LZTT 221100Z 2212/2312 25004KT 8000 SCT006
     TEMPO 2212/2214 08003KT 3000 BR BKN003
     BECMG 2214/2216 9999 SCT013 SCT030
     TEMPO 2215/2300 -SN BKN030=
 

22.01.2020 - 05:00 UTC

TAF AMD LZIB 221039Z 2210/2306 28009KT 7000 BKN008
     BECMG 2212/2214 32012KT 9999 SCT010 SCT025
     PROB40 TEMPO 2304/2306 06004KT 2500 BCFG SCT004=
 

22.01.2020 - 05:00 UTC

TAF AMD LZTT 220924Z 2209/2306 VRB02KT 3500 BCFG BKN004
     TEMPO 2209/2211 08003KT 0600 FZFG OVC002
     BECMG 2211/2213 24006KT 8000 SCT004
     BECMG 2213/2215 9999 SCT013 SCT030
     TEMPO 2215/2300 -SN BKN030=
 

22.01.2020 - 05:00 UTC

TAF AMD LZTT 220812Z 2208/2306 VRB02KT 0500 FZFG BKN002
     TEMPO 2208/2210 0100 FZFG OVC001
     BECMG 2210/2212 24006KT 3500 BCFG BKN003
     BECMG 2213/2215 9999 SCT013 SCT030
     TEMPO 2215/2300 -SN BKN030=
 

22.01.2020 - 08:00 UTC

TAF LZSL 220800Z 2209/2218 VRB02KT 9999 SCT006 OVC010
     BECMG 2210/2212 26006KT CAVOK=
 TAF LZPP 220800Z 2209/2218 27003KT 9999 OVC013
     PROB40 TEMPO 2209/2211 OVC008
     BECMG 2211/2213 33008KT CAVOK=
 TAF LZZI 220800Z 2209/2218 20007KT 9999 OVC010
     BECMG 2209/2211 CAVOK
     BECMG 2213/2215 VRB02KT 9999 BKN027=
 

22.01.2020 - 05:00 UTC

TAF COR LZIB 220530Z 2206/2306 VRB02KT 4000 BR BKN008
     PROB40 TEMPO 2206/2209 2000 -FZDZ BR OVC003
     BECMG 2209/2211 31010KT CAVOK
     BECMG 2217/2219 9999 SCT025
     BECMG 2304/2306 VRB02KT
     PROB40 TEMPO 2304/2306 2500 BCFG SCT004=
 

22.01.2020 - 05:00 UTC

TAF LZSL 220500Z 2206/2215 VRB02KT 8000 OVC007
     TEMPO 2206/2209 2500 BR OVC003=
 TAF LZPP 220500Z 2206/2215 30004KT 7000 OVC008
     TEMPO 2206/2209 2800 BR OVC003=
 TAF LZZI 220500Z 2206/2215 VRB02KT 9999 SCT004 OVC008
     PROB30 TEMPO 2206/2209 4500 BR OVC004
     BECMG 2209/2211 25004KT SCT007 BKN012=
 

22.01.2020 - 05:00 UTC

TAF LZIB 220500Z 2206/2306 VRB02KT 4000 BR BKN003
     TEMPO 2206/2209 2000 -FZDZ BR OVC002
     BECMG 2209/2211 31010KT CAVOK
     BECMG 2217/2219 9999 SCT025
     BECMG 2304/2306 VRB02KT
     PROB40 TEMPO 2304/2306 2500 BCFG SCT004=
 TAF LZKZ 220500Z 2206/2306 21005KT 7000 OVC008
     TEMPO 2206/2208 4000 BR OVC005
     TEMPO 2208/2216 21010KT 9999 -SNRA BR
     BECMG 2216/2218 9999 SCT014 BKN030
     BECMG 2220/2222 01005KT=
 TAF LZTT 220500Z 2206/2306 VRB02KT 0500 FZFG BKN002
     PROB40 TEMPO 2206/2207 0100 FZFG OVC001
     BECMG 2207/2209 1500 BCFG
     BECMG 2209/2211 24008KT CAVOK
     BECMG 2213/2215 9999 SCT013 SCT060
     TEMPO 2215/2300 -SN BKN011=
 

22.01.2020 - 02:00 UTC

TAF LZSL 220200Z 2203/2212 VRB02KT 6000 OVC006
     TEMPO 2203/2209 2000 BR OVC003
     PROB30 TEMPO 2203/2207 0500 FZFG OVC002=
 TAF LZZI 220200Z 2203/2212 VRB02KT 6000 SCT004 OVC008
     TEMPO 2203/2209 2000 BR OVC004
     PROB30 TEMPO 2203/2207 0500 FZFG OVC002=
 
MAPA | METAR | TAF | METEO SITUÁCIA

METAR - Letisková meteo správa

Letisková meteorologická správa METAR

Meteorologické informácie z ďalších profesionálnych meteorologických staníc SHMÚ zobrazené v tvare zodpovedajúcom pravidlám kódovania správ METAR sú uvedené v položke „METSYN Informácie o správe METAR

22.01.2020 - 17:30 UTC

METAR LZIB 221730Z 31017G27KT 9999 SCT027 03/M04 Q1029 R13/CLRD//
 NOSIG=
 METAR LZKZ 221730Z 26004KT 9999 OVC010 M02/M04 Q1027=
 METAR LZPP 221730Z 33006KT 9999 BKN025 M01/M03 Q1030=
 METAR LZSL 221730Z 02001KT 8000 FEW011 M04/M06 Q1026=
 METAR LZTT 221730Z 36004KT 280V050 9999 FEW036 M05/M06 Q1023=
 METAR LZZI 221730Z VRB01KT 4600 -SN BR SCT018 OVC031 M02/M03 Q1029=
 

22.01.2020 - 17:00 UTC

METAR LZIB 221700Z 32014KT 9999 FEW032 02/M04 Q1029 R13/CLRD//
 NOSIG=
 METAR LZKZ 221700Z 30003KT 9999 OVC010 M02/M04 Q1027 NOSIG=
 METAR LZPP 221700Z 33008KT 9999 BKN025 M01/M04 Q1030=
 METAR LZSL 221700Z VRB01KT 9000 FEW011 M04/M06 Q1026=
 METAR LZTT 221700Z VRB02KT 9999 FEW036 M05/M06 Q1023 NOSIG=
 METAR LZZI 221700Z VRB01KT 3000 -SN BR BKN016 OVC025 M02/M03 Q1029=
 

22.01.2020 - 17:00 UTC

METAR LZMC 221700Z 07002KT 9999 BKN024 M01/M04 Q1031=
 METAR LZPW 221700Z 23005KT 6000 -SN SCT007 BKN011
 M02/M04 Q1026=
 
načítavam...